Time;durP1;ratioP1;P1;durP2;ratioP2;P2;SDS_P1;SDS_P2;PMS_P1;PMS_P2;Temp;Humidity;BMP_temperature;BMP_pressure;BME280_temperature;BME280_humidity;BME280_pressure;Samples;Min_cycle;Max_cycle;Signal;HPM_P1;HPM_P2
2022/01/08 00:02:03;;;;;;;4.13;2.20;;;14.60;48.00;;;;;;5054821;28;20541;-36
2022/01/08 00:04:29;;;;;;;4.32;2.30;;;14.70;48.00;;;;;;5053289;28;20093;-38
2022/01/08 00:06:56;;;;;;;4.85;2.30;;;14.60;48.00;;;;;;5035910;28;20061;-38
2022/01/08 00:09:22;;;;;;;4.68;2.20;;;14.60;48.10;;;;;;5054033;28;20088;-38
2022/01/08 00:11:48;;;;;;;4.40;2.40;;;14.60;48.00;;;;;;5035765;28;20013;-38
2022/01/08 00:14:15;;;;;;;4.55;2.70;;;14.60;48.50;;;;;;5053313;28;20063;-38
2022/01/08 00:16:41;;;;;;;5.10;2.45;;;14.60;47.90;;;;;;5052968;28;20025;-38
2022/01/08 00:19:08;;;;;;;3.17;2.08;;;14.70;47.60;;;;;;5052828;28;20032;-38
2022/01/08 00:21:35;;;;;;;4.95;2.22;;;14.80;48.10;;;;;;5053920;28;20048;-38
2022/01/08 00:24:01;;;;;;;3.45;1.85;;;14.90;47.20;;;;;;5053289;28;20037;-40
2022/01/08 00:26:28;;;;;;;4.03;2.03;;;15.10;46.80;;;;;;5057415;28;20040;-39
2022/01/08 00:28:54;;;;;;;4.65;2.17;;;15.20;46.50;;;;;;5057196;28;20021;-39
2022/01/08 00:31:20;;;;;;;3.85;1.92;;;15.20;46.20;;;;;;5057092;28;20495;-39
2022/01/08 00:33:49;;;;;;;3.67;2.10;;;15.40;46.10;;;;;;5056930;28;20476;-39
2022/01/08 00:36:16;;;;;;;3.58;2.10;;;15.40;46.00;;;;;;5057356;28;20479;-40
2022/01/08 00:38:41;;;;;;;3.03;2.10;;;15.40;45.80;;;;;;5057479;28;20171;-39
2022/01/08 00:41:08;;;;;;;3.75;2.00;;;15.60;45.60;;;;;;5057206;28;20021;-39
2022/01/08 00:43:34;;;;;;;3.97;2.20;;;15.70;45.30;;;;;;5057033;28;20482;-42
2022/01/08 00:46:01;;;;;;;3.17;1.90;;;15.70;45.10;;;;;;5057306;28;20475;-41
2022/01/08 00:48:28;;;;;;;4.13;2.00;;;15.80;45.00;;;;;;5058963;28;20506;-41
2022/01/08 00:50:55;;;;;;;2.88;1.90;;;15.80;44.90;;;;;;5041035;28;20019;-42
2022/01/08 00:53:21;;;;;;;3.53;1.80;;;15.90;44.80;;;;;;5058255;28;20467;-42
2022/01/08 00:55:47;;;;;;;4.28;2.10;;;15.90;44.70;;;;;;5057615;28;20123;-42
2022/01/08 00:58:14;;;;;;;3.45;1.85;;;16.00;44.60;;;;;;5057540;28;20471;-41
2022/01/08 01:00:41;;;;;;;3.67;2.05;;;16.00;44.50;;;;;;5057357;28;20017;-41
2022/01/08 01:03:07;;;;;;;3.08;1.75;;;16.10;44.40;;;;;;5039251;28;20037;-36
2022/01/08 01:05:34;;;;;;;3.80;2.00;;;16.10;44.30;;;;;;5057491;28;20076;-37
2022/01/08 01:08:00;;;;;;;3.15;1.75;;;16.10;44.20;;;;;;5057140;28;20048;-37
2022/01/08 01:10:26;;;;;;;3.42;1.77;;;16.20;44.10;;;;;;5057136;28;20487;-37
2022/01/08 01:12:52;;;;;;;3.28;1.85;;;16.20;43.90;;;;;;5056985;28;20416;-37
2022/01/08 01:15:18;;;;;;;3.67;1.80;;;16.30;43.90;;;;;;5056692;28;20075;-36
2022/01/08 01:17:45;;;;;;;3.35;1.70;;;16.30;43.80;;;;;;5056292;28;20029;-36
2022/01/08 01:20:12;;;;;;;3.88;2.15;;;16.30;43.60;;;;;;5055545;28;20514;-36
2022/01/08 01:22:54;;;;;;;3.00;1.83;;;16.40;43.60;;;;;;5055851;28;20009;-36
2022/01/08 01:25:41;;;;;;;3.80;1.80;;;16.40;43.50;;;;;;5055349;28;20507;-36
2022/01/08 01:28:45;;;;;;;2.78;1.75;;;16.50;43.90;;;;;;5055095;28;20029;-36
2022/01/08 01:47:33;;;;;;;2.78;1.70;;;16.60;43.00;;;;;;5040182;28;20075;-38
2022/01/08 01:49:59;;;;;;;2.63;1.60;;;16.60;42.90;;;;;;5055077;28;20041;-38
2022/01/08 01:52:25;;;;;;;2.97;1.40;;;16.70;42.80;;;;;;5054742;28;20049;-38
2022/01/08 01:54:51;;;;;;;3.83;1.80;;;16.70;42.70;;;;;;5054781;28;20080;-38
2022/01/08 01:57:20;;;;;;;2.58;1.65;;;16.70;42.60;;;;;;5054801;28;20021;-38
2022/01/08 01:59:46;;;;;;;3.13;1.90;;;16.80;42.60;;;;;;5054876;28;20013;-38
2022/01/08 02:02:13;;;;;;;3.20;1.63;;;16.80;42.50;;;;;;5054489;28;20090;-38
2022/01/08 02:04:39;;;;;;;3.05;1.55;;;16.80;42.50;;;;;;5036811;28;20021;-39
2022/01/08 02:07:07;;;;;;;3.85;1.80;;;16.80;42.60;;;;;;5054805;28;20080;-39
2022/01/08 02:09:37;;;;;;;2.83;1.50;;;16.80;42.50;;;;;;5054660;28;20009;-39
2022/01/08 02:12:07;;;;;;;3.13;1.70;;;16.80;42.50;;;;;;5037281;28;20021;-40
2022/01/08 02:14:35;;;;;;;2.70;1.60;;;16.80;42.50;;;;;;5054782;28;20017;-39
2022/01/08 02:17:04;;;;;;;2.78;1.48;;;16.80;42.40;;;;;;5054218;28;20013;-39
2022/01/08 02:19:31;;;;;;;3.33;1.50;;;16.90;42.30;;;;;;5054227;28;20009;-39
2022/01/08 02:21:57;;;;;;;2.58;1.45;;;16.80;42.30;;;;;;5054249;28;20021;-39
2022/01/08 02:24:24;;;;;;;2.85;1.38;;;16.90;42.20;;;;;;5054216;28;20013;-40
2022/01/08 02:26:49;;;;;;;2.50;1.40;;;16.90;42.20;;;;;;5036422;28;20063;-41
2022/01/08 02:29:16;;;;;;;4.20;1.88;;;16.90;42.20;;;;;;5054384;28;20021;-40
2022/01/08 02:31:55;;;;;;;1.83;1.20;;;16.90;42.00;;;;;;5054067;28;20017;-40
2022/01/08 02:34:21;;;;;;;2.65;1.50;;;17.00;42.00;;;;;;5053988;28;20017;-40
2022/01/08 02:36:47;;;;;;;3.85;1.60;;;16.90;42.00;;;;;;5054164;28;20017;-40
2022/01/08 02:39:13;;;;;;;2.10;1.38;;;16.90;42.00;;;;;;5054059;28;20055;-40
2022/01/08 02:41:40;;;;;;;3.10;1.55;;;16.90;42.00;;;;;;5053820;28;20013;-41
2022/01/08 02:44:09;;;;;;;3.13;1.67;;;16.90;42.00;;;;;;5054082;28;20092;-42
2022/01/08 02:46:35;;;;;;;2.40;1.30;;;17.00;42.00;;;;;;5054236;28;20091;-42
2022/01/08 02:49:01;;;;;;;2.22;1.15;;;17.00;42.00;;;;;;5053738;28;20025;-42
2022/01/08 02:51:27;;;;;;;5.00;1.50;;;17.00;41.90;;;;;;5053810;28;20078;-42
2022/01/08 02:53:53;;;;;;;3.65;1.67;;;17.00;41.80;;;;;;5053680;28;20471;-43
2022/01/08 02:56:19;;;;;;;2.65;1.40;;;17.00;41.80;;;;;;5053898;28;20053;-42
2022/01/08 02:58:46;;;;;;;3.33;1.52;;;17.00;41.80;;;;;;5036537;28;20025;-42
2022/01/08 03:01:12;;;;;;;4.05;1.70;;;17.00;41.80;;;;;;5035727;28;20044;-42
2022/01/08 03:03:38;;;;;;;2.63;1.20;;;17.00;41.70;;;;;;5053751;28;20114;-37
2022/01/08 03:06:06;;;;;;;2.55;1.35;;;17.00;41.70;;;;;;5053798;28;20009;-36
2022/01/08 03:08:31;;;;;;;3.00;1.48;;;17.10;41.70;;;;;;5053742;28;20008;-36
2022/01/08 03:10:58;;;;;;;3.13;1.40;;;17.10;41.70;;;;;;5053906;28;20021;-36
2022/01/08 03:13:24;;;;;;;3.22;1.48;;;17.00;41.60;;;;;;5053170;28;20387;-36
2022/01/08 03:15:51;;;;;;;2.97;1.35;;;17.10;41.70;;;;;;5053143;28;20015;-38
2022/01/08 03:18:17;;;;;;;1.98;1.20;;;17.10;41.60;;;;;;5053217;28;20124;-36
2022/01/08 03:20:53;;;;;;;2.38;1.35;;;17.10;41.60;;;;;;5053563;28;20021;-36
2022/01/08 03:23:20;;;;;;;2.95;1.58;;;17.10;41.50;;;;;;5037332;28;20017;-36
2022/01/08 03:25:46;;;;;;;2.50;1.15;;;17.10;41.50;;;;;;5053125;28;21185;-36
2022/01/08 03:28:12;;;;;;;3.03;1.40;;;17.10;41.50;;;;;;5053423;28;20021;-37
2022/01/08 03:30:39;;;;;;;2.47;1.40;;;17.10;41.40;;;;;;5053271;28;20014;-36
2022/01/08 03:33:05;;;;;;;3.05;1.40;;;17.10;41.40;;;;;;5053164;28;20025;-38
2022/01/08 03:35:30;;;;;;;2.30;1.17;;;17.10;41.50;;;;;;5018688;28;20028;-37
2022/01/08 03:37:57;;;;;;;2.47;1.20;;;17.10;41.40;;;;;;5053096;28;20474;-36
2022/01/08 03:40:22;;;;;;;2.15;1.17;;;17.10;41.40;;;;;;5035416;28;20104;-37
2022/01/08 03:42:49;;;;;;;2.85;1.30;;;17.10;41.40;;;;;;5034937;28;20428;-37
2022/01/08 03:45:15;;;;;;;3.03;1.40;;;17.10;41.50;;;;;;5035182;28;20383;-36
2022/01/08 03:50:16;;;;;;;2.90;1.10;;;17.00;41.50;;;;;;5052773;28;20064;-36
2022/01/08 03:52:42;;;;;;;3.58;1.20;;;17.10;41.50;;;;;;5052697;28;20017;-36
2022/01/08 03:55:08;;;;;;;2.70;1.38;;;17.10;41.50;;;;;;5052612;28;20384;-36
2022/01/08 03:57:34;;;;;;;3.00;1.20;;;17.10;41.50;;;;;;5052704;28;20029;-37
2022/01/08 04:00:00;;;;;;;1.95;1.00;;;17.10;41.50;;;;;;5054627;28;20021;-37
2022/01/08 04:02:26;;;;;;;1.80;1.10;;;17.10;41.50;;;;;;5039397;28;20025;-38
2022/01/08 04:04:53;;;;;;;2.88;1.30;;;17.10;41.40;;;;;;5056709;28;20479;-39
2022/01/08 04:07:20;;;;;;;2.80;1.20;;;17.10;41.40;;;;;;5056670;28;20021;-38
2022/01/08 04:09:47;;;;;;;2.40;1.10;;;17.10;41.40;;;;;;5056965;28;20085;-37
2022/01/08 04:12:17;;;;;;;3.08;1.33;;;17.10;41.30;;;;;;5056915;28;20462;-37
2022/01/08 04:15:01;;;;;;;2.83;1.52;;;17.10;41.30;;;;;;5057083;28;20024;-37
2022/01/08 04:17:27;;;;;;;2.65;1.20;;;17.10;41.30;;;;;;5057164;28;20396;-37
2022/01/08 04:19:54;;;;;;;2.55;1.45;;;17.10;41.20;;;;;;5057376;28;20429;-38
2022/01/08 04:22:20;;;;;;;2.30;1.20;;;17.20;41.20;;;;;;5039195;28;20029;-37
2022/01/08 04:24:46;;;;;;;3.25;1.20;;;17.20;41.20;;;;;;5057209;28;20093;-39
2022/01/08 04:27:12;;;;;;;3.25;1.30;;;17.20;41.10;;;;;;5039062;28;20095;-40
2022/01/08 04:29:39;;;;;;;2.78;1.17;;;17.20;41.10;;;;;;5057072;28;20083;-38
2022/01/08 04:32:06;;;;;;;2.15;1.30;;;17.20;41.00;;;;;;5056802;28;20025;-38
2022/01/08 04:34:33;;;;;;;3.15;1.30;;;17.20;41.50;;;;;;5056562;28;20400;-38
2022/01/08 04:36:59;;;;;;;2.30;1.35;;;17.20;41.00;;;;;;5056490;28;20025;-38
2022/01/08 04:39:27;;;;;;;2.65;1.23;;;17.20;41.10;;;;;;5058000;28;20033;-39
2022/01/08 04:41:53;;;;;;;1.85;1.10;;;17.10;41.00;;;;;;5057588;28;20021;-39
2022/01/08 04:44:20;;;;;;;2.28;1.30;;;17.20;41.00;;;;;;5057808;28;20025;-40
2022/01/08 04:46:46;;;;;;;3.08;1.20;;;17.20;40.90;;;;;;5039038;28;20017;-39
2022/01/08 04:49:12;;;;;;;2.72;1.13;;;17.30;40.90;;;;;;5057508;28;20075;-40
2022/01/08 04:51:39;;;;;;;2.53;1.20;;;17.20;40.80;;;;;;5040358;28;20025;-40
2022/01/08 04:54:05;;;;;;;3.55;1.55;;;17.30;40.90;;;;;;5040227;28;20025;-40
2022/01/08 04:56:31;;;;;;;3.70;1.10;;;17.30;40.80;;;;;;5057945;28;20536;-40
2022/01/08 04:58:57;;;;;;;2.05;1.10;;;17.30;40.80;;;;;;5058099;28;20502;-40
2022/01/08 05:01:23;;;;;;;2.80;1.20;;;17.30;40.80;;;;;;5057862;28;20013;-40
2022/01/08 05:03:49;;;;;;;2.90;1.20;;;17.30;40.80;;;;;;5058122;28;20083;-37
2022/01/08 05:06:16;;;;;;;3.20;1.50;;;17.30;40.80;;;;;;5057330;28;20468;-36
2022/01/08 05:08:42;;;;;;;2.08;0.90;;;17.30;40.80;;;;;;5057257;28;20033;-37
2022/01/08 05:11:08;;;;;;;2.17;1.10;;;17.30;40.70;;;;;;5057114;28;20013;-36
2022/01/08 05:13:34;;;;;;;2.13;0.95;;;17.30;40.80;;;;;;5058264;28;20368;-37
2022/01/08 05:16:00;;;;;;;3.33;1.48;;;17.30;40.70;;;;;;5058227;28;20017;-37
2022/01/08 05:18:30;;;;;;;2.35;1.20;;;17.30;40.70;;;;;;5057985;28;20021;-36
2022/01/08 05:21:08;;;;;;;1.88;0.90;;;17.40;40.60;;;;;;5058017;28;20032;-36
2022/01/08 05:23:34;;;;;;;2.30;1.15;;;17.30;40.60;;;;;;5057937;28;20025;-36
2022/01/08 05:26:01;;;;;;;2.83;1.00;;;17.40;40.60;;;;;;5058767;28;20017;-36
2022/01/08 05:28:27;;;;;;;2.00;0.90;;;17.40;40.60;;;;;;5058424;28;20013;-36
2022/01/08 05:30:53;;;;;;;1.98;0.90;;;17.40;40.60;;;;;;5059977;28;20127;-37
2022/01/08 05:33:20;;;;;;;2.85;1.23;;;17.40;40.50;;;;;;5060295;28;20483;-38
2022/01/08 05:35:46;;;;;;;2.30;1.08;;;17.40;40.50;;;;;;5060519;28;20044;-38
2022/01/08 05:38:12;;;;;;;2.28;1.10;;;17.40;40.50;;;;;;5061251;28;20028;-39
2022/01/08 05:40:38;;;;;;;1.85;1.02;;;17.40;40.50;;;;;;5060335;28;20052;-38
2022/01/08 05:43:04;;;;;;;2.83;1.20;;;17.40;40.50;;;;;;5059430;28;20104;-38
2022/01/08 05:45:31;;;;;;;2.20;1.10;;;17.40;40.50;;;;;;5059939;28;20104;-38
2022/01/08 05:47:58;;;;;;;1.95;1.05;;;17.40;40.40;;;;;;5058368;28;20021;-39
2022/01/08 05:50:24;;;;;;;1.83;1.00;;;17.40;40.40;;;;;;5058574;28;20088;-38
2022/01/08 05:52:50;;;;;;;2.17;1.10;;;17.40;40.40;;;;;;5058246;28;20420;-38
2022/01/08 05:55:17;;;;;;;3.03;1.50;;;17.40;40.40;;;;;;5057322;28;20045;-37
2022/01/08 05:57:43;;;;;;;2.03;1.00;;;17.40;40.30;;;;;;5040064;28;20093;-37
2022/01/08 06:00:10;;;;;;;2.38;1.10;;;17.40;40.40;;;;;;5040266;28;20017;-37
2022/01/08 06:02:36;;;;;;;3.08;1.40;;;17.40;40.30;;;;;;5058244;28;20017;-37
2022/01/08 06:05:04;;;;;;;2.15;1.00;;;17.40;40.40;;;;;;5057383;28;20009;-39
2022/01/08 06:07:29;;;;;;;1.92;1.15;;;17.40;40.30;;;;;;5058010;28;20020;-38
2022/01/08 06:09:56;;;;;;;3.35;1.08;;;17.40;40.30;;;;;;5058099;28;20013;-39
2022/01/08 06:12:23;;;;;;;2.25;1.20;;;17.40;40.20;;;;;;5057394;28;20464;-39
2022/01/08 06:14:49;;;;;;;2.60;0.90;;;17.50;40.20;;;;;;5057912;28;20029;-39
2022/01/08 06:17:15;;;;;;;2.03;1.08;;;17.50;40.30;;;;;;5056912;28;20495;-38
2022/01/08 06:19:41;;;;;;;2.47;1.10;;;17.50;40.20;;;;;;5039638;28;20082;-39
2022/01/08 06:22:07;;;;;;;2.95;1.00;;;17.50;40.20;;;;;;5022003;28;20539;-38
2022/01/08 06:24:33;;;;;;;2.30;1.10;;;17.50;40.20;;;;;;5057107;28;20013;-39
2022/01/08 06:26:59;;;;;;;2.25;1.20;;;17.50;40.20;;;;;;5056662;28;20116;-39
2022/01/08 06:29:26;;;;;;;2.30;1.17;;;17.50;40.10;;;;;;5056737;28;20020;-39
2022/01/08 06:31:53;;;;;;;2.72;1.10;;;17.50;40.20;;;;;;5057452;28;20028;-40
2022/01/08 06:34:19;;;;;;;2.33;1.10;;;17.50;40.70;;;;;;5057262;28;20025;-39
2022/01/08 06:36:47;;;;;;;1.95;1.13;;;17.50;40.10;;;;;;5057409;28;20047;-39
2022/01/08 06:39:13;;;;;;;2.00;1.00;;;17.50;40.10;;;;;;5056632;28;20039;-40
2022/01/08 06:41:39;;;;;;;3.58;1.77;;;17.60;40.10;;;;;;5057060;28;20056;-39
2022/01/08 06:44:07;;;;;;;2.17;1.30;;;17.60;40.00;;;;;;5057660;28;20475;-43
2022/01/08 06:46:33;;;;;;;3.30;1.20;;;17.50;40.10;;;;;;5059485;28;20037;-42
2022/01/08 06:48:59;;;;;;;1.77;1.00;;;17.60;40.10;;;;;;5059476;28;20044;-42
2022/01/08 06:51:25;;;;;;;2.63;1.20;;;17.50;40.10;;;;;;5058837;28;20084;-42
2022/01/08 06:53:51;;;;;;;1.73;1.10;;;17.50;40.10;;;;;;5060068;28;20022;-42
2022/01/08 06:56:18;;;;;;;2.83;1.20;;;17.50;40.00;;;;;;5059696;28;20508;-44
2022/01/08 06:58:45;;;;;;;2.50;1.00;;;17.50;40.10;;;;;;5059675;28;20483;-46
2022/01/08 07:01:11;;;;;;;2.80;1.10;;;17.50;40.10;;;;;;5058174;28;20100;-47
2022/01/08 07:03:36;;;;;;;2.45;1.30;;;17.50;40.00;;;;;;5058003;28;20045;-37
2022/01/08 07:06:04;;;;;;;2.45;1.10;;;17.60;39.90;;;;;;5057467;28;20016;-38
2022/01/08 07:08:30;;;;;;;2.53;1.10;;;17.60;39.90;;;;;;5057159;28;20013;-37
2022/01/08 07:10:56;;;;;;;2.88;1.52;;;17.60;39.90;;;;;;5055399;28;20020;-36
2022/01/08 07:13:23;;;;;;;2.53;1.30;;;17.60;39.90;;;;;;5054574;28;20017;-37
2022/01/08 07:15:49;;;;;;;1.95;1.23;;;17.60;39.90;;;;;;5054737;28;20066;-37
2022/01/08 07:18:16;;;;;;;2.45;1.10;;;17.60;39.90;;;;;;5054438;28;20111;-36
2022/01/08 07:20:41;;;;;;;2.70;0.98;;;17.60;39.80;;;;;;5054007;28;20013;-37
2022/01/08 07:23:07;;;;;;;2.55;1.13;;;17.60;39.90;;;;;;5035729;28;20048;-36
2022/01/08 07:25:34;;;;;;;2.10;1.30;;;17.60;40.00;;;;;;5053854;28;20027;-37
2022/01/08 07:28:00;;;;;;;2.42;1.30;;;17.60;39.90;;;;;;5053841;28;20479;-37
2022/01/08 07:30:27;;;;;;;2.60;1.27;;;17.60;39.90;;;;;;5053403;28;20025;-36
2022/01/08 07:32:54;;;;;;;2.85;1.30;;;17.60;39.90;;;;;;5053409;28;20021;-36
2022/01/08 07:35:22;;;;;;;2.58;1.38;;;17.60;39.80;;;;;;5053063;28;20021;-37
2022/01/08 07:37:49;;;;;;;3.22;1.40;;;17.60;39.70;;;;;;5052849;28;20033;-36
2022/01/08 07:40:16;;;;;;;2.67;1.27;;;17.60;39.70;;;;;;5053114;28;20017;-37
2022/01/08 07:42:42;;;;;;;5.00;1.17;;;17.60;39.70;;;;;;5053135;28;20472;-37
2022/01/08 07:45:08;;;;;;;2.30;1.20;;;17.60;39.70;;;;;;5053570;28;20018;-37
2022/01/08 07:47:35;;;;;;;1.92;1.15;;;17.60;39.70;;;;;;5054319;28;20005;-37
2022/01/08 07:50:02;;;;;;;2.72;1.17;;;17.60;39.70;;;;;;5053949;28;20020;-37
2022/01/08 07:52:27;;;;;;;2.80;1.30;;;17.60;39.80;;;;;;5054456;28;20056;-37
2022/01/08 07:54:54;;;;;;;2.90;1.30;;;17.70;39.70;;;;;;5036807;28;20041;-37
2022/01/08 07:57:20;;;;;;;2.90;1.35;;;17.60;39.70;;;;;;5055031;28;20048;-37
2022/01/08 07:59:46;;;;;;;2.08;1.17;;;17.70;39.60;;;;;;5054418;28;20096;-37
2022/01/08 08:02:11;;;;;;;3.75;1.30;;;17.70;39.60;;;;;;5053276;28;20053;-37
2022/01/08 08:04:38;;;;;;;2.53;1.48;;;17.70;39.60;;;;;;5053086;28;20017;-36
2022/01/08 08:07:04;;;;;;;3.33;1.40;;;17.70;39.60;;;;;;5052712;28;20058;-37
2022/01/08 08:09:31;;;;;;;2.95;1.45;;;17.70;39.60;;;;;;5053330;28;20071;-37
2022/01/08 08:11:57;;;;;;;2.72;1.27;;;17.60;39.60;;;;;;5053535;28;20017;-37
2022/01/08 08:14:24;;;;;;;2.90;1.30;;;17.70;39.60;;;;;;5053089;28;20028;-37
2022/01/08 08:16:51;;;;;;;2.45;1.10;;;17.70;39.50;;;;;;5053349;28;20029;-37
2022/01/08 08:19:17;;;;;;;2.10;1.17;;;17.70;39.50;;;;;;5053529;28;20079;-37
2022/01/08 08:21:44;;;;;;;4.18;1.48;;;17.70;39.50;;;;;;5053935;28;20024;-37
2022/01/08 08:24:09;;;;;;;3.03;1.30;;;17.60;39.50;;;;;;5053565;28;20073;-37
2022/01/08 08:26:38;;;;;;;2.95;1.27;;;17.70;39.50;;;;;;5054645;28;20039;-38
2022/01/08 08:29:04;;;;;;;2.03;1.20;;;17.70;40.00;;;;;;5055096;28;20021;-40
2022/01/08 08:31:31;;;;;;;3.13;1.50;;;17.70;39.50;;;;;;5053092;28;20104;-38
2022/01/08 08:33:57;;;;;;;4.05;1.52;;;17.70;39.50;;;;;;5052794;28;20075;-39
2022/01/08 08:36:23;;;;;;;2.63;1.20;;;17.70;39.50;;;;;;5053024;28;20031;-38
2022/01/08 08:38:50;;;;;;;2.15;1.20;;;17.70;39.50;;;;;;5052813;28;20571;-38
2022/01/08 08:41:15;;;;;;;2.40;1.42;;;17.70;39.40;;;;;;5052618;28;20059;-38
2022/01/08 08:43:41;;;;;;;3.10;1.35;;;17.70;39.40;;;;;;5052769;28;20022;-39
2022/01/08 08:46:08;;;;;;;2.53;1.17;;;17.70;39.40;;;;;;5055016;28;20013;-39
2022/01/08 08:48:34;;;;;;;2.67;1.25;;;17.70;39.40;;;;;;5056548;28;20020;-39
2022/01/08 08:51:01;;;;;;;2.85;1.38;;;17.70;39.30;;;;;;5056548;28;20056;-38
2022/01/08 08:53:27;;;;;;;2.97;1.40;;;17.70;39.20;;;;;;5056429;28;20178;-38
2022/01/08 08:55:53;;;;;;;3.13;1.35;;;17.70;39.20;;;;;;5003354;28;20054;-39
2022/01/08 08:58:19;;;;;;;1.65;1.00;;;17.80;39.30;;;;;;5015946;28;20465;-38
2022/01/08 09:00:45;;;;;;;2.85;1.23;;;17.80;39.30;;;;;;5015785;28;20022;-38
2022/01/08 09:03:12;;;;;;;2.83;1.40;;;17.80;39.30;;;;;;5017022;28;20021;-40
2022/01/08 09:05:39;;;;;;;2.13;1.10;;;17.80;39.30;;;;;;5017180;28;20034;-40
2022/01/08 09:08:05;;;;;;;2.40;1.30;;;17.80;39.30;;;;;;5016748;28;20022;-42
2022/01/08 09:10:33;;;;;;;2.63;1.40;;;17.70;39.20;;;;;;5016651;28;20022;-40
2022/01/08 09:12:58;;;;;;;2.95;1.08;;;17.80;39.20;;;;;;5017388;28;20033;-40
2022/01/08 09:15:26;;;;;;;3.35;1.48;;;17.70;39.20;;;;;;5017407;28;20072;-40
2022/01/08 09:17:57;;;;;;;2.38;1.33;;;17.80;39.20;;;;;;5016810;28;20030;-39
2022/01/08 09:20:23;;;;;;;2.33;1.20;;;17.80;39.20;;;;;;5016668;28;20048;-40
2022/01/08 09:22:49;;;;;;;2.72;1.27;;;17.80;39.10;;;;;;5016208;28;20022;-41
2022/01/08 09:25:15;;;;;;;3.08;1.50;;;17.80;39.20;;;;;;5016078;28;20014;-41
2022/01/08 09:27:42;;;;;;;3.47;1.30;;;17.80;39.10;;;;;;5015136;28;20026;-41
2022/01/08 09:30:08;;;;;;;2.67;1.30;;;17.80;39.10;;;;;;5014603;28;20362;-41
2022/01/08 09:32:33;;;;;;;2.22;1.30;;;17.80;39.10;;;;;;5016176;28;20100;-41
2022/01/08 09:34:59;;;;;;;2.60;1.30;;;17.70;39.10;;;;;;4998620;28;20053;-41
2022/01/08 09:37:25;;;;;;;2.80;1.33;;;17.80;39.10;;;;;;5014638;28;20084;-44
2022/01/08 09:39:50;;;;;;;2.33;1.35;;;17.80;39.10;;;;;;5015893;28;20113;-41
2022/01/08 09:42:17;;;;;;;2.97;1.30;;;17.80;39.10;;;;;;5014768;28;20037;-40
2022/01/08 09:44:44;;;;;;;2.92;1.58;;;17.80;39.10;;;;;;5015912;28;20052;-37
2022/01/08 09:47:11;;;;;;;2.92;1.23;;;17.80;39.00;;;;;;5015504;28;20068;-36
2022/01/08 09:49:38;;;;;;;3.67;1.33;;;17.80;39.00;;;;;;5015565;28;20159;-37
2022/01/08 09:52:05;;;;;;;2.38;1.20;;;17.80;39.00;;;;;;5014200;28;20068;-36
2022/01/08 09:54:31;;;;;;;2.42;1.10;;;17.80;39.00;;;;;;5022528;28;20048;-38
2022/01/08 09:56:57;;;;;;;2.03;1.25;;;17.80;39.00;;;;;;5053992;28;20067;-36
2022/01/08 09:59:24;;;;;;;3.13;1.40;;;17.80;39.00;;;;;;5054606;28;20495;-36
2022/01/08 10:01:54;;;;;;;2.60;1.35;;;17.80;39.00;;;;;;5055083;28;20107;-36
2022/01/08 10:04:24;;;;;;;1.95;1.10;;;17.80;38.90;;;;;;5055607;28;20013;-37
2022/01/08 10:06:50;;;;;;;3.10;1.20;;;17.80;38.90;;;;;;5055637;28;20005;-36
2022/01/08 10:09:16;;;;;;;3.55;1.30;;;17.80;38.80;;;;;;5055975;28;20017;-38
2022/01/08 10:11:49;;;;;;;2.30;1.20;;;17.80;38.80;;;;;;5038618;28;20475;-37
2022/01/08 10:14:28;;;;;;;2.90;1.35;;;17.80;38.80;;;;;;5055861;28;20025;-36
2022/01/08 10:19:38;;;;;;;2.17;1.13;;;17.90;38.90;;;;;;5040015;28;20036;-36
2022/01/08 10:22:15;;;;;;;2.55;1.20;;;17.80;38.80;;;;;;5055063;28;20096;-36
2022/01/08 10:24:42;;;;;;;2.30;1.30;;;17.80;38.90;;;;;;5055219;28;20416;-37
2022/01/08 10:27:12;;;;;;;2.63;1.17;;;17.80;38.90;;;;;;5054786;28;20009;-37
2022/01/08 10:29:38;;;;;;;2.55;1.00;;;17.80;38.90;;;;;;5054787;28;20032;-36
2022/01/08 10:32:05;;;;;;;4.45;1.73;;;17.80;38.90;;;;;;5054565;28;20017;-37
2022/01/08 10:34:30;;;;;;;1.98;1.15;;;17.80;38.80;;;;;;5036911;28;20112;-37
2022/01/08 10:36:56;;;;;;;3.00;1.42;;;17.80;38.80;;;;;;5055187;28;20100;-37
2022/01/08 10:39:28;;;;;;;3.67;1.42;;;17.80;38.80;;;;;;5054496;28;20078;-37
2022/01/08 10:41:54;;;;;;;2.47;1.20;;;17.80;38.90;;;;;;5055033;28;20487;-37
2022/01/08 10:44:22;;;;;;;5.07;1.23;;;17.80;38.90;;;;;;5054984;28;20486;-39
2022/01/08 10:46:58;;;;;;;3.13;1.30;;;17.80;38.90;;;;;;5054755;28;20021;-39
2022/01/08 10:49:43;;;;;;;2.70;1.48;;;17.80;38.90;;;;;;5054566;28;20047;-39
2022/01/08 10:52:12;;;;;;;2.75;1.42;;;17.80;38.90;;;;;;5054495;28;20440;-40
2022/01/08 10:54:39;;;;;;;2.20;1.20;;;17.70;39.00;;;;;;5054350;28;20037;-39
2022/01/08 10:57:07;;;;;;;2.65;1.30;;;17.80;39.00;;;;;;5036382;28;20021;-39
2022/01/08 10:59:33;;;;;;;2.63;1.42;;;17.80;39.00;;;;;;5054561;28;20043;-38
2022/01/08 11:02:09;;;;;;;3.55;1.48;;;17.80;38.80;;;;;;5054301;28;20070;-38
2022/01/08 11:04:42;;;;;;;2.70;1.20;;;17.80;38.90;;;;;;5036503;28;20005;-39
2022/01/08 11:07:09;;;;;;;2.97;1.30;;;17.80;38.90;;;;;;5053842;28;20087;-39
2022/01/08 11:09:36;;;;;;;1.90;1.10;;;17.80;38.90;;;;;;5053444;28;20013;-40
2022/01/08 11:12:02;;;;;;;3.08;1.55;;;17.80;38.80;;;;;;5036147;28;20529;-40
2022/01/08 11:14:47;;;;;;;2.53;1.20;;;17.80;38.90;;;;;;5053694;28;20123;-39
2022/01/08 11:17:30;;;;;;;1.90;0.98;;;17.80;38.90;;;;;;5053857;28;20028;-40
2022/01/08 11:20:15;;;;;;;1.95;1.30;;;17.80;38.80;;;;;;5052914;28;20552;-39
2022/01/08 11:22:48;;;;;;;2.25;1.42;;;17.80;38.90;;;;;;5053946;28;20013;-40
2022/01/08 11:25:18;;;;;;;2.15;1.05;;;17.80;39.00;;;;;;5053861;28;20017;-36
2022/01/08 11:28:03;;;;;;;2.08;1.15;;;17.80;39.00;;;;;;5053920;28;20049;-37
2022/01/08 11:30:31;;;;;;;2.42;1.33;;;17.80;39.00;;;;;;5038089;28;20066;-38
2022/01/08 11:33:00;;;;;;;2.42;1.20;;;17.80;39.10;;;;;;5055898;28;20105;-37
2022/01/08 11:35:26;;;;;;;1.98;1.27;;;17.80;39.10;;;;;;5056067;28;20013;-37
2022/01/08 11:37:55;;;;;;;3.03;1.40;;;17.80;39.00;;;;;;5055204;28;20067;-37
2022/01/08 11:40:22;;;;;;;2.47;1.23;;;17.80;39.00;;;;;;5055347;28;20063;-37
2022/01/08 11:42:48;;;;;;;2.75;1.48;;;17.80;39.10;;;;;;5055981;28;20085;-37
2022/01/08 11:45:17;;;;;;;2.17;1.00;;;17.70;39.10;;;;;;5054401;28;20521;-36
2022/01/08 11:47:49;;;;;;;2.45;1.10;;;17.70;39.10;;;;;;5053176;28;20021;-37
2022/01/08 11:50:19;;;;;;;1.60;1.10;;;17.70;39.10;;;;;;5053059;28;20031;-36
2022/01/08 11:52:44;;;;;;;2.45;1.45;;;17.70;39.10;;;;;;5035109;28;20044;-36
2022/01/08 11:55:10;;;;;;;2.70;1.30;;;17.70;39.20;;;;;;5052819;28;20414;-37
2022/01/08 11:57:36;;;;;;;2.05;1.15;;;17.70;39.10;;;;;;5035218;28;20032;-36
2022/01/08 12:00:03;;;;;;;2.25;1.10;;;17.80;39.10;;;;;;5034931;28;20047;-36
2022/01/08 12:02:59;;;;;;;2.30;1.20;;;17.70;39.10;;;;;;5035423;28;20046;-36
2022/01/08 12:05:27;;;;;;;2.47;1.30;;;17.70;39.10;;;;;;5053029;28;20013;-39
2022/01/08 12:07:58;;;;;;;1.80;1.00;;;17.70;39.10;;;;;;5053450;28;20041;-39
2022/01/08 12:10:29;;;;;;;2.42;1.30;;;17.80;39.20;;;;;;5036113;28;20048;-39
2022/01/08 12:13:00;;;;;;;2.30;1.25;;;17.70;39.20;;;;;;5053210;28;20095;-39
2022/01/08 12:15:41;;;;;;;1.92;1.20;;;17.80;39.30;;;;;;5053608;28;20472;-39
2022/01/08 12:18:08;;;;;;;2.55;1.23;;;17.70;39.20;;;;;;5054262;28;20025;-40
2022/01/08 12:20:57;;;;;;;2.15;1.27;;;17.70;39.20;;;;;;5055286;28;20017;-39
2022/01/08 12:23:30;;;;;;;2.10;1.08;;;17.80;39.20;;;;;;5045843;28;20083;-40
2022/01/08 12:26:02;;;;;;;1.83;0.95;;;17.80;39.20;;;;;;5058331;28;20059;-41
2022/01/08 12:28:46;;;;;;;3.25;1.40;;;17.80;39.30;;;;;;5057997;28;20021;-41
2022/01/08 12:31:29;;;;;;;2.83;0.93;;;17.80;39.20;;;;;;5057815;28;20063;-40
2022/01/08 12:34:18;;;;;;;1.95;1.02;;;17.80;39.30;;;;;;5040432;28;20068;-40
2022/01/08 12:37:11;;;;;;;1.92;1.20;;;17.80;39.30;;;;;;5057797;28;20021;-40
2022/01/08 12:39:43;;;;;;;2.15;1.10;;;17.80;39.40;;;;;;5053029;28;20025;-40
2022/01/08 12:42:20;;;;;;;1.58;1.02;;;17.80;39.30;;;;;;5057756;28;20057;-40
2022/01/08 12:45:08;;;;;;;2.00;1.25;;;17.80;39.30;;;;;;5058291;28;20104;-36
2022/01/08 12:48:06;;;;;;;2.22;1.00;;;17.80;39.40;;;;;;5057674;28;20032;-36
2022/01/08 12:50:33;;;;;;;1.77;1.10;;;17.80;39.40;;;;;;5040329;28;20013;-36
2022/01/08 12:53:06;;;;;;;1.60;1.00;;;17.80;39.40;;;;;;5057824;28;20032;-37
2022/01/08 12:55:54;;;;;;;1.88;1.20;;;17.80;39.40;;;;;;5058031;28;20061;-36
2022/01/08 12:58:23;;;;;;;3.05;1.40;;;17.70;39.40;;;;;;5057278;28;20414;-36
2022/01/08 13:00:53;;;;;;;1.95;1.10;;;17.80;39.50;;;;;;5058903;28;20013;-37
2022/01/08 13:03:29;;;;;;;;;;;17.70;39.50;;;;;;5060650;28;20032;-37
2022/01/08 13:05:57;;;;;;;2.03;1.05;;;17.70;39.50;;;;;;5060553;28;19900;-37
2022/01/08 13:08:31;;;;;;;1.35;1.00;;;17.80;39.60;;;;;;5059563;28;20032;-37
2022/01/08 13:11:00;;;;;;;2.22;1.15;;;17.70;39.70;;;;;;5059992;28;20021;-37
2022/01/08 13:13:43;;;;;;;2.00;1.10;;;17.70;39.70;;;;;;5059890;28;20013;-37
2022/01/08 13:16:13;;;;;;;2.58;1.33;;;17.70;39.70;;;;;;5057387;28;20040;-37